Time;durP1;ratioP1;P1;durP2;ratioP2;P2;SDS_P1;SDS_P2;PMS_P1;PMS_P2;Temp;Humidity;BMP_temperature;BMP_pressure;BME280_temperature;BME280_humidity;BME280_pressure;Samples;Min_cycle;Max_cycle;Signal;HPM_P1;HPM_P2
2022/02/20 00:00:30;;;;;;;0.00;0.00;;;10.10;99.90;;;;;;5014365;28;20022;-74
2022/02/20 00:02:56;;;;;;;0.00;0.00;;;10.10;99.90;;;;;;5014032;28;20040;-74
2022/02/20 00:05:21;;;;;;;0.57;0.57;;;10.10;99.90;;;;;;5014318;28;20397;-74
2022/02/20 00:07:47;;;;;;;9.38;2.40;;;10.10;99.90;;;;;;5012761;28;20045;-74
2022/02/20 00:10:13;;;;;;;0.52;0.52;;;10.10;99.90;;;;;;5014251;28;20452;-73
2022/02/20 00:12:39;;;;;;;0.00;0.00;;;10.20;99.90;;;;;;5013962;28;20077;-74
2022/02/20 00:15:05;;;;;;;0.63;0.63;;;10.20;99.90;;;;;;5013521;28;20025;-74
2022/02/20 00:17:30;;;;;;;0.10;0.10;;;10.20;99.90;;;;;;5013848;28;20413;-74
2022/02/20 00:19:56;;;;;;;1.05;1.00;;;10.20;99.90;;;;;;5014171;28;20055;-74
2022/02/20 00:22:22;;;;;;;0.20;0.20;;;10.20;99.90;;;;;;5014201;28;20560;-74
2022/02/20 00:24:47;;;;;;;2.45;1.98;;;10.20;99.90;;;;;;5013687;28;20084;-74
2022/02/20 00:27:13;;;;;;;0.95;0.95;;;10.20;99.90;;;;;;5013795;28;20042;-74
2022/02/20 00:29:39;;;;;;;0.10;0.10;;;10.20;99.90;;;;;;5013868;28;20494;-74
2022/02/20 00:32:08;;;;;;;2.60;1.30;;;10.20;99.90;;;;;;5013998;28;20022;-74
2022/02/20 00:34:34;;;;;;;3.25;1.98;;;10.20;99.90;;;;;;5013786;28;20014;-73
2022/02/20 00:37:00;;;;;;;5.70;1.50;;;10.30;99.90;;;;;;5021262;28;20047;-74
2022/02/20 00:39:28;;;;;;;0.38;0.38;;;10.30;99.90;;;;;;5032913;28;20034;-73
2022/02/20 00:41:54;;;;;;;1.40;0.68;;;10.20;99.90;;;;;;5031987;28;20037;-73
2022/02/20 00:44:19;;;;;;;3.05;2.75;;;10.20;99.90;;;;;;5031951;28;20072;-74
2022/02/20 00:46:45;;;;;;;0.00;0.00;;;10.20;99.90;;;;;;5033451;28;20037;-74
2022/02/20 00:49:11;;;;;;;0.00;0.00;;;10.20;99.90;;;;;;5030914;28;20079;-74
2022/02/20 00:51:38;;;;;;;1.77;1.65;;;10.10;99.90;;;;;;5032975;28;20052;-74
2022/02/20 00:54:08;;;;;;;11.45;2.15;;;10.20;99.90;;;;;;5032470;28;20025;-74
2022/02/20 00:56:37;;;;;;;11.38;2.45;;;10.20;99.90;;;;;;5032335;28;20104;-73
2022/02/20 00:59:06;;;;;;;0.00;0.00;;;10.20;99.90;;;;;;5031760;28;20037;-73
2022/02/20 01:01:33;;;;;;;1.85;0.90;;;10.20;99.90;;;;;;5032857;28;20033;-74
2022/02/20 01:03:59;;;;;;;0.00;0.00;;;10.20;99.90;;;;;;5032752;28;20439;-74
2022/02/20 01:06:25;;;;;;;0.05;0.05;;;10.10;99.90;;;;;;5032613;28;20037;-74
2022/02/20 01:08:51;;;;;;;0.35;0.35;;;10.10;99.90;;;;;;5031105;28;20052;-73
2022/02/20 01:11:18;;;;;;;1.98;1.65;;;10.10;99.90;;;;;;5032713;28;20045;-74
2022/02/20 01:13:44;;;;;;;1.80;1.35;;;10.10;99.90;;;;;;5031075;28;20025;-74
2022/02/20 01:16:11;;;;;;;0.85;0.70;;;10.10;99.90;;;;;;5032664;28;20101;-74
2022/02/20 01:18:37;;;;;;;0.35;0.13;;;10.10;99.90;;;;;;5033040;28;20037;-72
2022/02/20 01:21:03;;;;;;;0.00;0.00;;;10.10;99.90;;;;;;5032873;28;20021;-73
2022/02/20 01:23:28;;;;;;;1.10;1.08;;;10.10;99.90;;;;;;5032550;28;20033;-74
2022/02/20 01:25:54;;;;;;;35.17;1.00;;;10.10;99.90;;;;;;5032322;28;20033;-74
2022/02/20 01:28:20;;;;;;;0.03;0.03;;;10.10;99.90;;;;;;5032877;28;20038;-73
2022/02/20 01:30:46;;;;;;;2.42;1.75;;;10.20;99.90;;;;;;5031328;28;20554;-73
2022/02/20 01:33:12;;;;;;;0.45;0.45;;;10.30;99.90;;;;;;5027639;28;20077;-73
2022/02/20 01:35:38;;;;;;;11.55;3.10;;;10.30;99.90;;;;;;5012976;28;20022;-73
2022/02/20 01:38:03;;;;;;;0.00;0.00;;;10.30;99.90;;;;;;5029030;28;20481;-74
2022/02/20 01:40:30;;;;;;;0.57;0.57;;;10.30;99.90;;;;;;5032470;28;20527;-73
2022/02/20 01:43:00;;;;;;;0.00;0.00;;;10.30;99.90;;;;;;5032278;28;20049;-73
2022/02/20 01:45:26;;;;;;;1.20;1.10;;;10.30;99.90;;;;;;5031475;28;20055;-73
2022/02/20 01:47:55;;;;;;;0.22;0.22;;;10.30;99.90;;;;;;5032314;28;20039;-74
2022/02/20 01:50:20;;;;;;;0.63;0.63;;;10.30;99.90;;;;;;5032258;28;20061;-74
2022/02/20 01:52:47;;;;;;;8.15;2.50;;;10.30;99.90;;;;;;5032694;28;20053;-74
2022/02/20 01:55:14;;;;;;;0.00;0.00;;;10.30;99.90;;;;;;5032023;28;20021;-74
2022/02/20 01:57:41;;;;;;;0.00;0.00;;;10.30;99.90;;;;;;5035811;28;20025;-74
2022/02/20 02:00:13;;;;;;;2.63;1.65;;;10.40;99.90;;;;;;5035545;28;20034;-74
2022/02/20 02:02:39;;;;;;;0.80;0.65;;;10.40;99.90;;;;;;5036081;28;20053;-74
2022/02/20 02:05:05;;;;;;;4.07;2.72;;;10.40;99.90;;;;;;5036302;28;20123;-74
2022/02/20 02:07:31;;;;;;;0.52;0.50;;;10.50;99.90;;;;;;5034854;28;20040;-74
2022/02/20 02:09:57;;;;;;;0.10;0.10;;;10.50;99.90;;;;;;5035406;28;20017;-74
2022/02/20 02:12:22;;;;;;;0.47;0.47;;;10.50;99.90;;;;;;5035681;28;20045;-74
2022/02/20 02:15:09;;;;;;;0.57;0.57;;;10.50;99.90;;;;;;5036205;28;20021;-73
2022/02/20 02:17:35;;;;;;;0.00;0.00;;;10.50;99.90;;;;;;5035851;28;20048;-74
2022/02/20 02:20:02;;;;;;;3.20;1.77;;;10.40;99.90;;;;;;5035914;28;20026;-74
2022/02/20 02:22:28;;;;;;;0.08;0.08;;;10.40;99.90;;;;;;5036003;28;20112;-73
2022/02/20 02:24:56;;;;;;;0.98;0.40;;;10.40;99.90;;;;;;5035706;28;20029;-74
2022/02/20 02:27:22;;;;;;;0.25;0.25;;;10.40;99.90;;;;;;5034448;28;20451;-74
2022/02/20 02:29:49;;;;;;;15.70;0.47;;;10.30;99.90;;;;;;5035883;28;20025;-73
2022/02/20 02:32:15;;;;;;;0.05;0.05;;;10.30;99.90;;;;;;5035947;28;20087;-74
2022/02/20 02:34:46;;;;;;;0.00;0.00;;;10.30;99.90;;;;;;5017801;28;20516;-74
2022/02/20 02:37:12;;;;;;;0.00;0.00;;;10.30;99.90;;;;;;5024699;28;20025;-73
2022/02/20 02:39:39;;;;;;;0.13;0.13;;;10.20;99.90;;;;;;5035301;28;20032;-74
2022/02/20 02:42:06;;;;;;;3.50;2.53;;;10.30;99.90;;;;;;5035848;28;20467;-74
2022/02/20 02:44:32;;;;;;;1.85;1.75;;;10.20;99.90;;;;;;5036134;28;20107;-73
2022/02/20 02:46:58;;;;;;;1.45;1.35;;;10.20;99.90;;;;;;5035488;28;20033;-73
2022/02/20 02:49:23;;;;;;;0.08;0.08;;;10.20;99.90;;;;;;5035009;28;20053;-74
2022/02/20 02:51:49;;;;;;;0.85;0.85;;;10.20;99.90;;;;;;5034993;28;20025;-73
2022/02/20 02:54:18;;;;;;;15.68;2.70;;;10.30;99.90;;;;;;5035022;28;20025;-74
2022/02/20 02:56:45;;;;;;;0.40;0.40;;;10.40;99.90;;;;;;5035428;28;20084;-74
2022/02/20 02:59:11;;;;;;;0.13;0.13;;;10.30;99.90;;;;;;5034614;28;20030;-74
2022/02/20 03:01:37;;;;;;;0.28;0.28;;;10.30;99.90;;;;;;5035041;28;20483;-73
2022/02/20 03:04:02;;;;;;;14.98;0.55;;;10.30;99.90;;;;;;5035339;28;20105;-74
2022/02/20 03:06:28;;;;;;;6.97;2.30;;;10.30;99.90;;;;;;5035138;28;20408;-74
2022/02/20 03:08:54;;;;;;;0.10;0.10;;;10.30;99.90;;;;;;5032759;28;20026;-73
2022/02/20 03:11:20;;;;;;;0.65;0.50;;;10.30;99.90;;;;;;5033523;28;20022;-74
2022/02/20 03:13:46;;;;;;;10.75;2.17;;;10.30;99.90;;;;;;5034985;28;20029;-73
2022/02/20 03:16:12;;;;;;;1.17;1.08;;;10.30;99.90;;;;;;5034720;28;20477;-74
2022/02/20 03:18:37;;;;;;;0.47;0.47;;;10.30;99.90;;;;;;5034299;28;20457;-74
2022/02/20 03:21:06;;;;;;;0.00;0.00;;;10.20;99.90;;;;;;5034916;28;20136;-73
2022/02/20 03:23:32;;;;;;;0.55;0.38;;;10.20;99.90;;;;;;5034586;28;20049;-73
2022/02/20 03:25:59;;;;;;;2.45;1.25;;;10.20;99.90;;;;;;5034726;28;20041;-74
2022/02/20 03:28:24;;;;;;;0.08;0.08;;;10.20;99.90;;;;;;5034413;28;20033;-73
2022/02/20 03:30:50;;;;;;;14.05;0.60;;;10.10;99.90;;;;;;5034635;28;20507;-74
2022/02/20 03:33:17;;;;;;;2.10;1.45;;;10.10;99.90;;;;;;5028785;28;20024;-73
2022/02/20 03:35:43;;;;;;;1.00;0.93;;;10.10;99.90;;;;;;5014592;28;20029;-74
2022/02/20 03:38:09;;;;;;;1.55;1.13;;;10.20;99.90;;;;;;5031562;28;20220;-74
2022/02/20 03:40:35;;;;;;;0.32;0.28;;;10.20;99.90;;;;;;5033148;28;20030;-73
2022/02/20 03:43:00;;;;;;;4.57;0.40;;;10.30;99.90;;;;;;5034163;28;20038;-74
2022/02/20 03:45:30;;;;;;;0.00;0.00;;;10.30;99.90;;;;;;5033852;28;20036;-74
2022/02/20 03:47:57;;;;;;;13.02;1.02;;;10.30;99.90;;;;;;5034123;28;20025;-74
2022/02/20 03:50:23;;;;;;;0.00;0.00;;;10.30;99.90;;;;;;5033935;28;20061;-73
2022/02/20 03:52:49;;;;;;;1.60;0.93;;;10.40;99.90;;;;;;5034385;28;20022;-74
2022/02/20 03:55:17;;;;;;;0.80;0.43;;;10.40;99.90;;;;;;5033290;28;20025;-74
2022/02/20 03:57:45;;;;;;;10.23;1.63;;;10.40;99.90;;;;;;5034232;28;20018;-74
2022/02/20 04:00:17;;;;;;;0.22;0.22;;;10.40;99.90;;;;;;5033952;28;20080;-74
2022/02/20 04:02:42;;;;;;;0.00;0.00;;;10.40;99.90;;;;;;5034213;28;20101;-74
2022/02/20 04:05:12;;;;;;;0.00;0.00;;;10.40;99.90;;;;;;5034034;28;20441;-73
2022/02/20 04:07:38;;;;;;;2.42;1.95;;;10.40;99.90;;;;;;5033805;28;20037;-74
2022/02/20 04:10:06;;;;;;;2.55;1.13;;;10.40;99.90;;;;;;5033555;28;20021;-74
2022/02/20 04:12:32;;;;;;;3.70;1.17;;;10.30;99.90;;;;;;5033281;28;20036;-74
2022/02/20 04:14:58;;;;;;;0.10;0.10;;;10.30;99.90;;;;;;5033728;28;20496;-73
2022/02/20 04:17:27;;;;;;;7.03;0.52;;;10.30;99.90;;;;;;5033734;28;20029;-74
2022/02/20 04:19:53;;;;;;;0.70;0.70;;;10.30;99.90;;;;;;5032807;28;20025;-74
2022/02/20 04:22:20;;;;;;;12.07;0.55;;;10.30;99.90;;;;;;5033893;28;20030;-74
2022/02/20 04:24:45;;;;;;;1.17;0.70;;;10.30;99.90;;;;;;5033523;28;20030;-74
2022/02/20 04:27:11;;;;;;;2.30;1.85;;;10.30;99.90;;;;;;5033673;28;20567;-74
2022/02/20 04:29:37;;;;;;;2.90;1.45;;;10.20;99.90;;;;;;5033586;28;20025;-74
2022/02/20 04:32:04;;;;;;;0.08;0.08;;;10.30;99.90;;;;;;5033644;28;20029;-74
2022/02/20 04:34:29;;;;;;;0.80;0.75;;;10.30;99.90;;;;;;5017042;28;20025;-74
2022/02/20 04:36:55;;;;;;;2.25;0.70;;;10.20;99.90;;;;;;5020767;28;20025;-74
2022/02/20 04:39:21;;;;;;;0.00;0.00;;;10.20;99.90;;;;;;5033262;28;20033;-74
2022/02/20 04:41:47;;;;;;;0.65;0.65;;;10.20;99.90;;;;;;5033320;28;20104;-73
2022/02/20 04:44:13;;;;;;;0.00;0.00;;;10.20;99.90;;;;;;5033354;28;20132;-74
2022/02/20 04:46:39;;;;;;;2.97;1.65;;;10.20;99.90;;;;;;5033022;28;20076;-74
2022/02/20 04:49:06;;;;;;;3.10;1.38;;;10.20;99.90;;;;;;5033287;28;20105;-74
2022/02/20 04:51:33;;;;;;;0.00;0.00;;;10.20;99.90;;;;;;5033068;28;20017;-74
2022/02/20 04:54:01;;;;;;;0.60;0.57;;;10.20;99.90;;;;;;5032088;28;20029;-74
2022/02/20 04:56:27;;;;;;;1.63;1.38;;;10.20;99.90;;;;;;5033192;28;20021;-74
2022/02/20 04:58:53;;;;;;;0.40;0.40;;;10.10;99.90;;;;;;5032560;28;20029;-74
2022/02/20 05:01:19;;;;;;;0.00;0.00;;;10.10;99.90;;;;;;5032722;28;20029;-74
2022/02/20 05:03:44;;;;;;;1.73;1.60;;;10.10;99.90;;;;;;5031554;28;20017;-74
2022/02/20 05:06:10;;;;;;;16.83;1.17;;;10.20;99.90;;;;;;5033415;28;20022;-74
2022/02/20 05:08:36;;;;;;;0.00;0.00;;;10.20;99.90;;;;;;5032772;28;20021;-74
2022/02/20 05:11:02;;;;;;;0.43;0.43;;;10.20;99.90;;;;;;5032433;28;20045;-74
2022/02/20 05:13:28;;;;;;;1.80;1.55;;;10.10;99.90;;;;;;5033130;28;20025;-74
2022/02/20 05:15:54;;;;;;;0.10;0.10;;;10.10;99.90;;;;;;5032637;28;20405;-74
2022/02/20 05:18:20;;;;;;;0.10;0.10;;;10.10;99.90;;;;;;5032594;28;20029;-74
2022/02/20 05:20:54;;;;;;;2.45;1.65;;;10.10;99.90;;;;;;5032944;28;20503;-74
2022/02/20 05:23:21;;;;;;;0.43;0.43;;;10.10;99.90;;;;;;5032771;28;20377;-74
2022/02/20 05:25:47;;;;;;;0.50;0.30;;;10.10;99.90;;;;;;5032871;28;20030;-73
2022/02/20 05:28:13;;;;;;;0.00;0.00;;;10.10;99.90;;;;;;5032874;28;20892;-74
2022/02/20 05:30:39;;;;;;;0.52;0.52;;;10.10;99.90;;;;;;5032375;28;20116;-74
2022/02/20 05:33:07;;;;;;;3.10;0.98;;;10.10;99.90;;;;;;5032615;28;20052;-74
2022/02/20 05:35:33;;;;;;;0.63;0.20;;;10.10;99.90;;;;;;5017187;28;20404;-74
2022/02/20 05:37:59;;;;;;;0.60;0.35;;;10.10;99.90;;;;;;5032528;28;20018;-73
2022/02/20 05:40:25;;;;;;;0.32;0.32;;;10.10;99.90;;;;;;5036791;28;20032;-74
2022/02/20 05:42:53;;;;;;;4.57;1.17;;;10.10;99.90;;;;;;5036549;28;20029;-74
2022/02/20 05:45:19;;;;;;;1.17;0.47;;;10.10;99.90;;;;;;5036877;28;20539;-74
2022/02/20 05:47:45;;;;;;;0.55;0.08;;;10.10;99.90;;;;;;5036125;28;20028;-74
2022/02/20 05:50:11;;;;;;;0.20;0.20;;;10.10;99.90;;;;;;5036249;28;20029;-74
2022/02/20 05:52:38;;;;;;;0.60;0.55;;;10.20;99.90;;;;;;5036747;28;20028;-73
2022/02/20 05:55:05;;;;;;;2.35;1.45;;;10.20;99.90;;;;;;5036074;28;20152;-74
2022/02/20 05:57:45;;;;;;;1.58;1.40;;;10.10;99.90;;;;;;5034889;28;20033;-74
2022/02/20 06:00:13;;;;;;;39.75;0.90;;;10.10;99.90;;;;;;5035884;28;20107;-74
2022/02/20 06:02:39;;;;;;;0.22;0.22;;;10.10;99.90;;;;;;5036144;28;20025;-74
2022/02/20 06:05:06;;;;;;;0.80;0.80;;;10.20;99.90;;;;;;5035179;28;20036;-74
2022/02/20 06:07:32;;;;;;;0.10;0.10;;;10.20;99.90;;;;;;5036123;28;20493;-74
2022/02/20 06:09:57;;;;;;;2.13;1.63;;;10.20;99.90;;;;;;5035748;28;20542;-74
2022/02/20 06:12:23;;;;;;;4.13;0.95;;;10.30;99.90;;;;;;5036152;28;20041;-74
2022/02/20 06:14:48;;;;;;;7.57;1.88;;;10.30;99.90;;;;;;5034832;28;20199;-74
2022/02/20 06:17:14;;;;;;;0.75;0.60;;;10.30;99.90;;;;;;5036446;28;20477;-73
2022/02/20 06:19:40;;;;;;;3.58;2.00;;;10.30;99.90;;;;;;5035967;28;20056;-74
2022/02/20 06:22:06;;;;;;;0.98;0.88;;;10.30;99.90;;;;;;5036187;28;20030;-73
2022/02/20 06:24:31;;;;;;;1.85;0.70;;;10.30;99.90;;;;;;5035580;28;20030;-74
2022/02/20 06:26:58;;;;;;;0.50;0.50;;;10.30;99.90;;;;;;5035857;28;20496;-74
2022/02/20 06:29:25;;;;;;;0.00;0.00;;;10.30;99.90;;;;;;5035786;28;20087;-74
2022/02/20 06:31:51;;;;;;;5.57;2.08;;;10.30;99.90;;;;;;5035819;28;20033;-74
2022/02/20 06:34:16;;;;;;;0.20;0.20;;;10.30;99.90;;;;;;5030961;28;20030;-73
2022/02/20 06:36:42;;;;;;;0.03;0.03;;;10.30;99.90;;;;;;5029257;28;20167;-74
2022/02/20 06:39:10;;;;;;;0.17;0.15;;;10.30;99.90;;;;;;5034854;28;20033;-74
2022/02/20 06:41:36;;;;;;;0.95;0.80;;;10.30;99.90;;;;;;5035310;28;20025;-74
2022/02/20 06:44:02;;;;;;;2.08;0.43;;;10.30;99.90;;;;;;5035550;28;20412;-73
2022/02/20 06:46:28;;;;;;;2.00;0.85;;;10.30;99.90;;;;;;5035596;28;20026;-74
2022/02/20 06:48:54;;;;;;;0.73;0.73;;;10.30;99.90;;;;;;5033804;28;20029;-74
2022/02/20 06:51:20;;;;;;;0.15;0.15;;;10.30;99.90;;;;;;5035361;28;20101;-74
2022/02/20 06:53:45;;;;;;;1.90;1.05;;;10.30;99.90;;;;;;5034939;28;20477;-74
2022/02/20 06:56:11;;;;;;;4.28;1.65;;;10.20;99.90;;;;;;5034581;28;20481;-73
2022/02/20 06:58:36;;;;;;;0.35;0.35;;;10.30;99.90;;;;;;5035473;28;20056;-74
2022/02/20 07:01:02;;;;;;;0.00;0.00;;;10.30;99.90;;;;;;5034569;28;20430;-74
2022/02/20 07:03:28;;;;;;;0.47;0.40;;;10.30;99.90;;;;;;5035367;28;20465;-73
2022/02/20 07:05:53;;;;;;;0.55;0.55;;;10.30;99.90;;;;;;5035057;28;20477;-73
2022/02/20 07:08:19;;;;;;;0.70;0.70;;;10.30;99.90;;;;;;5034771;28;20029;-73
2022/02/20 07:10:45;;;;;;;0.10;0.10;;;10.40;99.90;;;;;;5034780;28;20029;-74
2022/02/20 07:13:10;;;;;;;0.40;0.40;;;10.40;99.90;;;;;;5033437;28;20480;-74
2022/02/20 07:15:36;;;;;;;7.38;0.57;;;10.40;99.90;;;;;;5034169;28;20025;-73
2022/02/20 07:18:02;;;;;;;0.60;0.60;;;10.50;99.90;;;;;;5034597;28;20029;-74
2022/02/20 07:20:28;;;;;;;3.75;2.28;;;10.50;99.90;;;;;;5033712;28;20036;-74
2022/02/20 07:22:53;;;;;;;0.75;0.43;;;10.60;99.90;;;;;;5034793;28;20033;-74
2022/02/20 07:25:20;;;;;;;0.55;0.55;;;10.60;99.90;;;;;;5034948;28;20038;-74
2022/02/20 07:27:53;;;;;;;2.63;1.55;;;10.70;99.90;;;;;;5035175;28;20465;-73
2022/02/20 07:30:19;;;;;;;6.05;3.72;;;10.70;99.90;;;;;;5034929;28;20028;-74
2022/02/20 07:32:44;;;;;;;0.10;0.10;;;10.80;99.90;;;;;;5033286;28;20480;-74
2022/02/20 07:35:10;;;;;;;0.85;0.52;;;10.80;99.90;;;;;;5014918;28;20030;-74
2022/02/20 07:37:36;;;;;;;3.00;2.22;;;10.80;99.90;;;;;;5027871;28;20057;-73
2022/02/20 07:40:02;;;;;;;5.55;2.65;;;10.80;99.90;;;;;;5034183;28;20029;-74
2022/02/20 07:42:28;;;;;;;3.35;0.70;;;10.90;99.90;;;;;;5032818;28;20128;-74
2022/02/20 07:44:54;;;;;;;0.50;0.30;;;10.90;99.90;;;;;;5034260;28;20089;-74
2022/02/20 07:47:20;;;;;;;1.33;1.23;;;10.90;99.90;;;;;;5034510;28;20028;-73
2022/02/20 07:49:46;;;;;;;1.15;1.13;;;11.00;99.90;;;;;;5033207;28;20443;-73
2022/02/20 07:52:12;;;;;;;3.00;1.20;;;11.00;99.90;;;;;;5034427;28;20021;-74
2022/02/20 07:54:37;;;;;;;1.50;1.40;;;11.00;99.90;;;;;;5033137;28;20087;-73
2022/02/20 07:57:04;;;;;;;2.65;1.00;;;11.00;99.90;;;;;;5033824;28;20017;-74
2022/02/20 07:59:30;;;;;;;0.30;0.30;;;11.10;99.90;;;;;;5034331;28;20025;-74
2022/02/20 08:01:55;;;;;;;1.45;0.85;;;11.10;99.90;;;;;;5033189;28;20029;-73
2022/02/20 08:04:21;;;;;;;2.28;1.95;;;11.10;99.90;;;;;;5034318;28;20128;-73
2022/02/20 08:06:47;;;;;;;2.05;1.10;;;11.10;99.90;;;;;;5034010;28;20037;-74
2022/02/20 08:09:12;;;;;;;14.68;3.22;;;11.10;99.90;;;;;;5033564;28;20029;-74
2022/02/20 08:11:38;;;;;;;0.40;0.40;;;11.10;99.90;;;;;;5033618;28;20048;-73
2022/02/20 08:14:05;;;;;;;5.90;1.50;;;11.10;99.90;;;;;;5032317;28;20049;-73
2022/02/20 08:16:31;;;;;;;1.73;1.63;;;11.00;99.90;;;;;;5033319;28;20029;-74
2022/02/20 08:18:57;;;;;;;11.00;2.67;;;11.00;99.90;;;;;;5033781;28;20025;-74
2022/02/20 08:21:23;;;;;;;1.33;1.27;;;11.00;99.90;;;;;;5032495;28;20484;-73
2022/02/20 08:23:50;;;;;;;4.28;1.08;;;11.00;99.90;;;;;;5033032;28;20033;-74
2022/02/20 08:26:16;;;;;;;1.38;1.27;;;11.00;99.90;;;;;;5033745;28;20115;-73
2022/02/20 08:28:42;;;;;;;0.00;0.00;;;11.00;99.90;;;;;;5033272;28;20565;-74
2022/02/20 08:31:09;;;;;;;0.00;0.00;;;11.10;99.90;;;;;;5033572;28;20100;-74
2022/02/20 08:33:34;;;;;;;0.88;0.70;;;11.10;99.90;;;;;;5025212;28;20048;-74
2022/02/20 08:36:00;;;;;;;0.45;0.45;;;11.10;99.90;;;;;;5013728;28;20014;-74
2022/02/20 08:38:26;;;;;;;1.27;0.63;;;11.10;99.90;;;;;;5032695;28;20029;-73
2022/02/20 08:40:52;;;;;;;1.20;0.88;;;11.20;99.90;;;;;;5033533;28;20374;-74
2022/02/20 08:43:20;;;;;;;0.43;0.35;;;11.20;99.90;;;;;;5033588;28;20104;-73
2022/02/20 08:45:48;;;;;;;5.57;1.88;;;11.20;99.90;;;;;;5033197;28;20026;-74
2022/02/20 08:48:14;;;;;;;1.67;1.45;;;11.20;99.90;;;;;;5033169;28;20056;-73
2022/02/20 08:50:41;;;;;;;0.08;0.08;;;11.30;99.90;;;;;;5032936;28;20026;-73
2022/02/20 08:53:08;;;;;;;0.10;0.10;;;11.40;99.90;;;;;;5032870;28;20017;-73
2022/02/20 08:55:33;;;;;;;0.80;0.80;;;11.40;99.90;;;;;;5032855;28;20049;-74
2022/02/20 08:57:59;;;;;;;0.10;0.10;;;11.40;99.90;;;;;;5032503;28;20071;-74
2022/02/20 09:00:25;;;;;;;0.22;0.22;;;11.40;99.90;;;;;;5032427;28;20025;-73
2022/02/20 09:02:50;;;;;;;2.33;0.85;;;11.50;99.90;;;;;;5032576;28;20039;-74
2022/02/20 09:05:17;;;;;;;2.95;1.95;;;11.50;99.90;;;;;;5033022;28;20428;-75
2022/02/20 09:07:42;;;;;;;0.25;0.15;;;11.50;99.90;;;;;;5032186;28;20029;-74
2022/02/20 09:10:09;;;;;;;0.00;0.00;;;11.50;99.90;;;;;;5030421;28;20487;-73
2022/02/20 09:12:37;;;;;;;2.88;0.35;;;11.50;99.90;;;;;;5032790;28;20025;-74
2022/02/20 09:15:07;;;;;;;0.20;0.20;;;11.50;99.90;;;;;;5033066;28;20018;-74
2022/02/20 09:17:33;;;;;;;15.07;3.33;;;11.60;99.90;;;;;;5032429;28;20075;-74
2022/02/20 09:20:03;;;;;;;5.82;0.80;;;11.70;99.90;;;;;;5032094;28;20100;-73
2022/02/20 09:22:28;;;;;;;0.38;0.38;;;11.70;99.90;;;;;;5032859;28;20033;-73
2022/02/20 09:24:57;;;;;;;3.35;1.05;;;11.80;99.90;;;;;;5032304;28;20029;-74
2022/02/20 09:27:23;;;;;;;0.45;0.45;;;11.90;99.90;;;;;;5031037;28;20033;-74
2022/02/20 09:29:49;;;;;;;0.80;0.40;;;11.90;99.90;;;;;;5033351;28;20029;-74
2022/02/20 09:32:16;;;;;;;2.65;0.77;;;11.90;99.90;;;;;;5032625;28;20025;-74
2022/02/20 09:34:42;;;;;;;0.43;0.35;;;11.80;99.90;;;;;;5031107;28;20013;-74
2022/02/20 09:37:08;;;;;;;6.43;2.08;;;11.80;99.90;;;;;;5032564;28;20032;-73
2022/02/20 09:39:33;;;;;;;0.63;0.28;;;11.80;99.90;;;;;;5032309;28;20025;-73
2022/02/20 09:42:00;;;;;;;7.88;0.88;;;11.80;99.90;;;;;;5032500;28;20033;-74
2022/02/20 09:44:27;;;;;;;2.42;0.75;;;11.80;99.90;;;;;;5032365;28;20049;-74
2022/02/20 09:46:54;;;;;;;1.27;0.82;;;11.80;99.90;;;;;;5032186;28;20078;-74
2022/02/20 09:49:26;;;;;;;1.80;1.30;;;11.80;99.90;;;;;;5032163;28;20025;-74
2022/02/20 09:51:52;;;;;;;3.17;1.83;;;11.70;99.90;;;;;;5031330;28;20035;-74
2022/02/20 09:54:17;;;;;;;38.83;3.20;;;11.70;99.90;;;;;;5032428;28;20029;-74
2022/02/20 09:56:43;;;;;;;0.22;0.22;;;11.80;99.90;;;;;;5032315;28;20037;-73
2022/02/20 09:59:09;;;;;;;7.65;1.45;;;11.90;99.90;;;;;;5032774;28;20032;-73
2022/02/20 10:01:35;;;;;;;4.82;1.23;;;11.80;99.90;;;;;;5032631;28;20049;-73
2022/02/20 10:04:12;;;;;;;3.78;2.17;;;11.90;99.90;;;;;;5031609;28;20099;-74
2022/02/20 10:06:47;;;;;;;0.00;0.00;;;11.90;99.90;;;;;;5031371;28;20033;-74
2022/02/20 10:09:20;;;;;;;0.30;0.22;;;11.80;99.90;;;;;;5031405;28;20021;-74
2022/02/20 10:11:45;;;;;;;4.80;1.45;;;11.90;99.90;;;;;;5018498;28;20470;-74
2022/02/20 10:14:18;;;;;;;14.38;0.80;;;11.90;99.90;;;;;;5012543;28;20026;-74
2022/02/20 10:16:47;;;;;;;2.88;1.67;;;11.90;99.90;;;;;;5012655;28;20030;-73
2022/02/20 10:19:12;;;;;;;2.60;1.75;;;11.90;99.90;;;;;;5016204;28;20034;-73
2022/02/20 10:21:39;;;;;;;5.60;2.10;;;12.00;99.90;;;;;;5016206;28;20028;-73
2022/02/20 10:24:09;;;;;;;10.68;2.50;;;12.10;99.90;;;;;;5031565;28;20026;-74
2022/02/20 10:26:47;;;;;;;1.52;1.00;;;12.10;99.90;;;;;;5016644;28;20018;-73
2022/02/20 10:29:18;;;;;;;0.30;0.30;;;12.00;99.90;;;;;;5016113;28;20117;-74
2022/02/20 10:31:52;;;;;;;0.95;0.95;;;12.10;99.90;;;;;;5015914;28;20105;-74
2022/02/20 10:34:19;;;;;;;0.17;0.17;;;12.10;99.90;;;;;;5016156;28;20021;-74
2022/02/20 10:36:58;;;;;;;4.10;1.15;;;12.10;99.90;;;;;;5021146;28;20064;-74
2022/02/20 10:39:31;;;;;;;8.57;2.13;;;12.20;99.90;;;;;;5035301;28;20037;-73
2022/02/20 10:42:10;;;;;;;0.77;0.77;;;12.20;99.90;;;;;;5035429;28;20033;-73
2022/02/20 10:44:57;;;;;;;7.75;2.35;;;12.10;99.90;;;;;;5035189;28;20053;-73
2022/02/20 10:47:24;;;;;;;4.85;1.88;;;12.10;99.90;;;;;;5035624;28;20053;-73
2022/02/20 10:49:50;;;;;;;0.10;0.10;;;12.00;99.90;;;;;;5034767;28;20103;-74
2022/02/20 10:52:32;;;;;;;2.65;2.17;;;12.10;99.90;;;;;;5035335;28;20021;-73
2022/02/20 10:55:09;;;;;;;9.80;2.40;;;12.20;99.90;;;;;;5034895;28;20396;-73
2022/02/20 10:57:37;;;;;;;22.02;3.28;;;12.20;99.90;;;;;;5035285;28;20025;-73
2022/02/20 11:00:17;;;;;;;0.32;0.32;;;12.10;99.90;;;;;;5035610;28;20105;-74
2022/02/20 11:02:44;;;;;;;16.50;4.95;;;12.10;99.90;;;;;;5035232;28;20018;-73
2022/02/20 11:05:12;;;;;;;4.07;1.75;;;12.10;99.90;;;;;;5033308;28;20030;-73
2022/02/20 11:07:38;;;;;;;1.13;1.05;;;12.20;99.90;;;;;;5035265;28;20029;-74
2022/02/20 11:10:09;;;;;;;0.32;0.32;;;12.20;99.90;;;;;;5034694;28;20033;-74
2022/02/20 11:12:37;;;;;;;2.70;2.28;;;12.20;99.90;;;;;;5014957;28;20034;-74
2022/02/20 11:15:07;;;;;;;1.00;0.90;;;12.30;99.90;;;;;;5015225;28;20018;-73
2022/02/20 11:17:35;;;;;;;0.52;0.52;;;12.30;99.90;;;;;;5014772;28;20080;-73
2022/02/20 11:20:06;;;;;;;5.50;1.55;;;12.40;99.90;;;;;;5014138;28;20068;-74
2022/02/20 11:22:36;;;;;;;12.18;3.58;;;12.40;99.90;;;;;;5015130;28;20022;-74
2022/02/20 11:25:04;;;;;;;10.23;1.33;;;12.40;99.90;;;;;;5014843;28;20140;-73
2022/02/20 11:27:30;;;;;;;7.32;1.85;;;12.40;99.90;;;;;;5014756;28;20026;-74
2022/02/20 11:29:55;;;;;;;0.60;0.60;;;12.50;99.90;;;;;;5013782;28;20032;-73
2022/02/20 11:32:21;;;;;;;0.00;0.00;;;12.60;99.90;;;;;;5014951;28;20026;-74
2022/02/20 11:34:48;;;;;;;0.70;0.47;;;12.80;99.90;;;;;;5014672;28;20041;-74
2022/02/20 11:37:14;;;;;;;0.35;0.35;;;12.90;99.90;;;;;;5024600;28;20018;-73
2022/02/20 11:40:12;;;;;;;9.43;1.90;;;12.90;99.90;;;;;;5034274;28;20033;-73
2022/02/20 11:42:39;;;;;;;1.85;1.60;;;13.00;99.90;;;;;;5034034;28;20105;-73
2022/02/20 11:45:09;;;;;;;2.25;0.90;;;13.00;99.90;;;;;;5034437;28;20026;-74
2022/02/20 11:47:35;;;;;;;0.35;0.35;;;13.00;99.90;;;;;;5033159;28;20022;-73
2022/02/20 11:50:20;;;;;;;3.63;1.75;;;13.00;99.90;;;;;;5033635;28;20412;-73
2022/02/20 11:52:48;;;;;;;0.32;0.32;;;13.00;99.90;;;;;;5034242;28;20104;-74
2022/02/20 11:55:20;;;;;;;0.30;0.30;;;13.10;99.90;;;;;;5032854;28;20562;-73
2022/02/20 11:57:46;;;;;;;33.42;2.17;;;13.40;99.90;;;;;;5034223;28;20500;-73
2022/02/20 12:00:22;;;;;;;1.67;1.55;;;13.60;99.90;;;;;;5033758;28;20033;-74
2022/02/20 12:03:00;;;;;;;0.82;0.82;;;13.70;99.90;;;;;;5033933;28;20033;-73
2022/02/20 12:05:26;;;;;;;0.85;0.85;;;13.20;99.90;;;;;;5033596;28;20072;-73
2022/02/20 12:07:52;;;;;;;6.05;2.45;;;13.20;99.90;;;;;;5033456;28;20053;-73
2022/02/20 12:10:20;;;;;;;2.53;1.63;;;13.30;99.90;;;;;;5033815;28;20515;-74
2022/02/20 12:13:17;;;;;;;6.70;0.60;;;13.60;99.90;;;;;;5033693;28;20036;-72
2022/02/20 12:15:43;;;;;;;0.98;0.75;;;13.80;99.90;;;;;;5032641;28;20071;-72
2022/02/20 12:18:15;;;;;;;0.75;0.75;;;13.90;99.90;;;;;;5033452;28;20013;-71
2022/02/20 12:20:46;;;;;;;10.37;1.60;;;13.50;99.90;;;;;;5033778;28;20079;-72
2022/02/20 12:23:27;;;;;;;0.10;0.10;;;13.30;99.90;;;;;;5033451;28;20326;-72
2022/02/20 12:25:54;;;;;;;15.65;0.63;;;13.20;99.90;;;;;;5048549;28;20061;-73
2022/02/20 12:28:36;;;;;;;1.40;0.68;;;13.40;99.90;;;;;;5034502;28;20033;-73
2022/02/20 12:31:13;;;;;;;1.30;0.63;;;13.40;99.90;;;;;;5033575;28;20477;-72
2022/02/20 12:33:46;;;;;;;0.80;0.80;;;13.50;99.90;;;;;;5033242;28;20029;-72
2022/02/20 12:36:14;;;;;;;1.35;1.25;;;13.70;99.90;;;;;;5033180;28;20096;-72
2022/02/20 12:38:54;;;;;;;0.55;0.45;;;13.80;99.90;;;;;;5033168;28;20025;-72
2022/02/20 12:41:20;;;;;;;0.95;0.95;;;13.90;99.90;;;;;;5033242;28;20500;-72
2022/02/20 12:43:50;;;;;;;6.00;2.33;;;13.90;99.90;;;;;;5033011;28;20124;-72
2022/02/20 12:46:16;;;;;;;15.88;2.38;;;14.00;99.90;;;;;;5033192;28;20061;-72